INFORMACIÓN METAR y TAF
METAR FOR LEBA
ADDS - METARS form results

(0315 UTC 13 September 2022)
Data provider http://aviationweather.gov/metar/data/
 
METAR text: LEBA 130300Z AUTO VRB01KT 9999 -RA NSC 22/18 Q1009
Conditions at: LEBA (CORDOBA AIRPORT , ES) observed 0300 UTC 13 September 2022
Temperature: 22.0°C (72°F)
Dewpoint: 18.0°C (64°F) [RH = 78%]
Pressure (altimeter): 29.79 inches Hg (1009.0 mb)
Winds: variable direction winds at 1 MPH (1 knots; 0.5 m/s)
Visibility: 6 or more miles (10+ km)
Ceiling: at least 12,000 feet AGL
Clouds: sky clear below 12,000 feet AGL
Weather: -RA  (light rain)

METAR text: LEBA 130230Z AUTO VRB02KT 9999 -RA NSC 22/18 Q1009
Conditions at: LEBA (CORDOBA AIRPORT , ES) observed 0230 UTC 13 September 2022
Temperature: 22.0°C (72°F)
Dewpoint: 18.0°C (64°F) [RH = 78%]
Pressure (altimeter): 29.79 inches Hg (1009.0 mb)
Winds: variable direction winds at 2 MPH (2 knots; 1.0 m/s)
Visibility: 6 or more miles (10+ km)
Ceiling: at least 12,000 feet AGL
Clouds: sky clear below 12,000 feet AGL
Weather: -RA  (light rain)

Forecast for: LEBA (CORDOBA AIRPORT , ES)
Text: TAF LEBA 130200Z 1303/1403 24008KT 9999 SCT020 SCT040 TX28/1315Z TN20/1403Z
Forecast period: 0300 UTC 13 September 2022 to 0300 UTC 14 September 2022
Forecast type: FROM: standard forecast or significant change
Winds: from the WSW (240 degrees) at 9 MPH (8 knots; 4.1 m/s)
Visibility: 6 or more miles (10+ km)
Ceiling: at least 12,000 feet AGL
Clouds: scattered clouds at 2000 feet AGL
scattered clouds at 4000 feet AGL
Weather: no significant weather forecast for this period
Text: PROB40
Forecast period: 0300 UTC 13 September 2022 to 0300 UTC 14 September 2022
Forecast type: TEMPORARY: The following changes expected for less than half the time period
Visibility: missing
Ceiling: at least 12,000 feet AGL
Clouds: scattered clouds at 1500 feet AGL
scattered clouds at 3500 feet AGL
Weather: SHRA  (rain showers)
Text: TEMPO 1303/1403 SHRA SCT015 SCT035TCU
Forecast period: 0300 to 1500 UTC 13 September 2022
Forecast type: TEMPORARY: The following changes expected for less than half the time period
Visibility: 1.86 miles (2.99 km)
Ceiling: at least 12,000 feet AGL
Clouds: scattered clouds at 1500 feet AGL
scattered clouds at 3000 feet AGL
Weather: TSRA  (rain associated with thunderstorm(s))

 MAPA DE AEROPUERTO

 INFORMACIÓN DE PISTA
Pista 03 Longitud 4527 ft Ancho 148 ft
Elevación 293 ft Umbral desplazado 0 ft Rumbo de pista 29
Pista 21 Longitud 4527 ft Ancho 148 ft
Elevación 297 ft Umbral desplazado 0 ft Rumbo de pista 209

 FRECUANCIAS DEL AEROPUERTO
Tipo CTAF Nombre CTAF Frecuencia 118.3 MHZ

 RADIO AYUDAS DEL AEROPUERTO
Tipo VOR-DME Nombre Cordoba Frecuencia 112400 KHZ
Tipo NDB Nombre Cordoba Frecuencia 366 KHZ



Powered by Virtual Airlines Manager [v2.6.2]